sensor_id;sensor_type;location;lat;lon;timestamp;P1;durP1;ratioP1;P2;durP2;ratioP2
75774;SDS011;64505;51.458;7.556;2023-08-20T00:01:14;13.75;;;7.30;;
75774;SDS011;64505;51.458;7.556;2023-08-20T00:03:17;9.95;;;6.53;;
75774;SDS011;64505;51.458;7.556;2023-08-20T00:05:19;11.55;;;6.95;;
75774;SDS011;64505;51.458;7.556;2023-08-20T00:07:21;12.63;;;7.28;;
75774;SDS011;64505;51.458;7.556;2023-08-20T00:09:22;11.88;;;7.10;;
75774;SDS011;64505;51.458;7.556;2023-08-20T00:11:25;11.25;;;6.45;;
75774;SDS011;64505;51.458;7.556;2023-08-20T00:13:26;10.57;;;7.05;;
75774;SDS011;64505;51.458;7.556;2023-08-20T00:15:29;9.15;;;5.90;;
75774;SDS011;64505;51.458;7.556;2023-08-20T00:17:31;9.55;;;6.65;;
75774;SDS011;64505;51.458;7.556;2023-08-20T00:19:34;11.65;;;6.85;;
75774;SDS011;64505;51.458;7.556;2023-08-20T00:21:35;9.98;;;6.15;;
75774;SDS011;64505;51.458;7.556;2023-08-20T00:23:42;12.50;;;7.32;;
75774;SDS011;64505;51.458;7.556;2023-08-20T00:25:44;9.88;;;5.70;;
75774;SDS011;64505;51.458;7.556;2023-08-20T00:27:46;11.68;;;7.15;;
75774;SDS011;64505;51.458;7.556;2023-08-20T00:29:47;9.60;;;6.63;;
75774;SDS011;64505;51.458;7.556;2023-08-20T00:31:49;10.68;;;6.78;;
75774;SDS011;64505;51.458;7.556;2023-08-20T00:33:50;9.55;;;5.90;;
75774;SDS011;64505;51.458;7.556;2023-08-20T00:36:06;13.55;;;7.28;;
75774;SDS011;64505;51.458;7.556;2023-08-20T00:38:08;10.10;;;6.75;;
75774;SDS011;64505;51.458;7.556;2023-08-20T00:40:10;8.70;;;6.13;;
75774;SDS011;64505;51.458;7.556;2023-08-20T00:42:11;11.07;;;6.10;;
75774;SDS011;64505;51.458;7.556;2023-08-20T00:44:15;11.85;;;6.78;;
75774;SDS011;64505;51.458;7.556;2023-08-20T00:46:17;12.00;;;6.88;;
75774;SDS011;64505;51.458;7.556;2023-08-20T00:48:18;12.88;;;7.18;;
75774;SDS011;64505;51.458;7.556;2023-08-20T00:50:20;11.32;;;6.70;;
75774;SDS011;64505;51.458;7.556;2023-08-20T00:52:22;9.70;;;6.40;;
75774;SDS011;64505;51.458;7.556;2023-08-20T00:54:23;9.65;;;6.28;;
75774;SDS011;64505;51.458;7.556;2023-08-20T00:56:26;11.88;;;6.63;;
75774;SDS011;64505;51.458;7.556;2023-08-20T00:58:28;12.90;;;7.30;;
75774;SDS011;64505;51.458;7.556;2023-08-20T01:00:29;11.15;;;6.68;;
75774;SDS011;64505;51.458;7.556;2023-08-20T01:02:31;10.80;;;6.40;;
75774;SDS011;64505;51.458;7.556;2023-08-20T01:04:32;11.68;;;7.20;;
75774;SDS011;64505;51.458;7.556;2023-08-20T01:06:44;12.07;;;6.68;;
75774;SDS011;64505;51.458;7.556;2023-08-20T01:08:57;11.90;;;7.45;;
75774;SDS011;64505;51.458;7.556;2023-08-20T01:11:17;13.30;;;7.47;;
75774;SDS011;64505;51.458;7.556;2023-08-20T01:13:35;14.48;;;7.20;;
75774;SDS011;64505;51.458;7.556;2023-08-20T01:15:36;11.88;;;6.85;;
75774;SDS011;64505;51.458;7.556;2023-08-20T01:18:02;12.27;;;7.32;;
75774;SDS011;64505;51.458;7.556;2023-08-20T01:20:04;13.07;;;8.25;;
75774;SDS011;64505;51.458;7.556;2023-08-20T01:22:29;16.02;;;8.07;;
75774;SDS011;64505;51.458;7.556;2023-08-20T01:26:59;15.07;;;7.75;;
75774;SDS011;64505;51.458;7.556;2023-08-20T01:29:18;13.95;;;7.78;;
75774;SDS011;64505;51.458;7.556;2023-08-20T01:31:20;11.77;;;7.38;;
75774;SDS011;64505;51.458;7.556;2023-08-20T01:33:23;12.18;;;7.32;;
75774;SDS011;64505;51.458;7.556;2023-08-20T01:35:25;12.68;;;7.40;;
75774;SDS011;64505;51.458;7.556;2023-08-20T01:37:27;10.63;;;7.75;;
75774;SDS011;64505;51.458;7.556;2023-08-20T01:39:29;13.73;;;7.93;;
75774;SDS011;64505;51.458;7.556;2023-08-20T01:41:31;12.48;;;6.97;;
75774;SDS011;64505;51.458;7.556;2023-08-20T01:43:32;12.38;;;8.05;;
75774;SDS011;64505;51.458;7.556;2023-08-20T01:45:34;13.18;;;7.43;;
75774;SDS011;64505;51.458;7.556;2023-08-20T01:47:36;12.82;;;7.03;;
75774;SDS011;64505;51.458;7.556;2023-08-20T01:49:38;12.68;;;7.50;;
75774;SDS011;64505;51.458;7.556;2023-08-20T01:51:39;13.30;;;8.18;;
75774;SDS011;64505;51.458;7.556;2023-08-20T01:53:41;13.48;;;8.35;;
75774;SDS011;64505;51.458;7.556;2023-08-20T01:55:42;12.57;;;7.43;;
75774;SDS011;64505;51.458;7.556;2023-08-20T01:57:44;15.60;;;8.82;;
75774;SDS011;64505;51.458;7.556;2023-08-20T01:59:45;12.23;;;8.25;;
75774;SDS011;64505;51.458;7.556;2023-08-20T02:01:48;13.23;;;8.43;;
75774;SDS011;64505;51.458;7.556;2023-08-20T02:03:49;13.23;;;9.32;;
75774;SDS011;64505;51.458;7.556;2023-08-20T02:05:51;14.25;;;8.95;;
75774;SDS011;64505;51.458;7.556;2023-08-20T02:07:53;13.23;;;9.57;;
75774;SDS011;64505;51.458;7.556;2023-08-20T02:09:55;15.13;;;9.98;;
75774;SDS011;64505;51.458;7.556;2023-08-20T02:11:56;15.63;;;10.23;;
75774;SDS011;64505;51.458;7.556;2023-08-20T02:13:58;16.15;;;10.60;;
75774;SDS011;64505;51.458;7.556;2023-08-20T02:16:02;15.27;;;9.45;;
75774;SDS011;64505;51.458;7.556;2023-08-20T02:18:05;19.92;;;11.70;;
75774;SDS011;64505;51.458;7.556;2023-08-20T02:20:07;15.60;;;10.45;;
75774;SDS011;64505;51.458;7.556;2023-08-20T02:22:11;15.23;;;9.63;;
75774;SDS011;64505;51.458;7.556;2023-08-20T02:24:12;14.43;;;9.70;;
75774;SDS011;64505;51.458;7.556;2023-08-20T02:26:14;16.17;;;10.00;;
75774;SDS011;64505;51.458;7.556;2023-08-20T02:28:16;15.98;;;9.75;;
75774;SDS011;64505;51.458;7.556;2023-08-20T02:30:17;14.23;;;9.98;;
75774;SDS011;64505;51.458;7.556;2023-08-20T02:32:19;16.20;;;10.73;;
75774;SDS011;64505;51.458;7.556;2023-08-20T02:34:20;17.10;;;10.60;;
75774;SDS011;64505;51.458;7.556;2023-08-20T02:36:22;15.88;;;10.77;;
75774;SDS011;64505;51.458;7.556;2023-08-20T02:38:23;16.13;;;11.00;;
75774;SDS011;64505;51.458;7.556;2023-08-20T02:40:25;16.48;;;10.48;;
75774;SDS011;64505;51.458;7.556;2023-08-20T02:42:26;20.30;;;9.70;;
75774;SDS011;64505;51.458;7.556;2023-08-20T02:44:28;14.55;;;8.82;;
75774;SDS011;64505;51.458;7.556;2023-08-20T02:46:29;17.30;;;9.68;;
75774;SDS011;64505;51.458;7.556;2023-08-20T02:48:31;15.70;;;9.50;;
75774;SDS011;64505;51.458;7.556;2023-08-20T02:50:32;13.15;;;8.38;;
75774;SDS011;64505;51.458;7.556;2023-08-20T02:52:34;13.05;;;8.95;;
75774;SDS011;64505;51.458;7.556;2023-08-20T02:54:35;14.90;;;10.02;;
75774;SDS011;64505;51.458;7.556;2023-08-20T02:56:37;14.02;;;9.23;;
75774;SDS011;64505;51.458;7.556;2023-08-20T02:58:38;13.63;;;8.85;;
75774;SDS011;64505;51.458;7.556;2023-08-20T03:00:40;12.43;;;8.50;;
75774;SDS011;64505;51.458;7.556;2023-08-20T03:02:43;14.82;;;8.77;;
75774;SDS011;64505;51.458;7.556;2023-08-20T03:04:45;14.63;;;8.30;;
75774;SDS011;64505;51.458;7.556;2023-08-20T03:06:46;13.77;;;8.23;;
75774;SDS011;64505;51.458;7.556;2023-08-20T03:08:48;14.27;;;9.07;;
75774;SDS011;64505;51.458;7.556;2023-08-20T03:10:49;15.63;;;8.65;;
75774;SDS011;64505;51.458;7.556;2023-08-20T03:12:51;13.15;;;7.93;;
75774;SDS011;64505;51.458;7.556;2023-08-20T03:14:52;13.82;;;8.23;;
75774;SDS011;64505;51.458;7.556;2023-08-20T03:16:54;12.77;;;8.60;;
75774;SDS011;64505;51.458;7.556;2023-08-20T03:18:55;12.60;;;8.20;;
75774;SDS011;64505;51.458;7.556;2023-08-20T03:20:57;10.23;;;7.05;;
75774;SDS011;64505;51.458;7.556;2023-08-20T03:22:58;13.20;;;8.27;;
75774;SDS011;64505;51.458;7.556;2023-08-20T03:24:59;15.77;;;7.95;;
75774;SDS011;64505;51.458;7.556;2023-08-20T03:27:01;13.23;;;8.13;;
75774;SDS011;64505;51.458;7.556;2023-08-20T03:29:04;12.05;;;8.27;;
75774;SDS011;64505;51.458;7.556;2023-08-20T03:31:05;15.82;;;9.10;;
75774;SDS011;64505;51.458;7.556;2023-08-20T03:33:07;15.63;;;9.10;;
75774;SDS011;64505;51.458;7.556;2023-08-20T03:35:08;15.63;;;9.73;;
75774;SDS011;64505;51.458;7.556;2023-08-20T03:37:10;14.73;;;8.75;;
75774;SDS011;64505;51.458;7.556;2023-08-20T03:39:11;15.65;;;9.45;;
75774;SDS011;64505;51.458;7.556;2023-08-20T03:41:13;16.70;;;9.27;;
75774;SDS011;64505;51.458;7.556;2023-08-20T03:43:15;17.60;;;10.43;;
75774;SDS011;64505;51.458;7.556;2023-08-20T03:45:16;22.08;;;12.13;;
75774;SDS011;64505;51.458;7.556;2023-08-20T03:47:18;23.23;;;12.80;;
75774;SDS011;64505;51.458;7.556;2023-08-20T03:49:21;23.70;;;13.25;;
75774;SDS011;64505;51.458;7.556;2023-08-20T03:51:23;22.10;;;13.38;;
75774;SDS011;64505;51.458;7.556;2023-08-20T03:53:24;26.50;;;13.70;;
75774;SDS011;64505;51.458;7.556;2023-08-20T03:55:26;23.67;;;13.43;;
75774;SDS011;64505;51.458;7.556;2023-08-20T03:57:28;20.40;;;13.00;;
75774;SDS011;64505;51.458;7.556;2023-08-20T03:59:30;19.60;;;13.45;;
75774;SDS011;64505;51.458;7.556;2023-08-20T04:01:32;22.15;;;13.65;;
75774;SDS011;64505;51.458;7.556;2023-08-20T04:03:33;25.25;;;14.30;;
75774;SDS011;64505;51.458;7.556;2023-08-20T04:05:35;21.05;;;12.98;;
75774;SDS011;64505;51.458;7.556;2023-08-20T04:07:38;22.60;;;13.38;;
75774;SDS011;64505;51.458;7.556;2023-08-20T04:09:39;22.67;;;13.93;;
75774;SDS011;64505;51.458;7.556;2023-08-20T04:11:42;23.00;;;13.65;;
75774;SDS011;64505;51.458;7.556;2023-08-20T04:13:44;24.60;;;13.23;;
75774;SDS011;64505;51.458;7.556;2023-08-20T04:15:46;22.08;;;12.63;;
75774;SDS011;64505;51.458;7.556;2023-08-20T04:17:48;18.67;;;11.82;;
75774;SDS011;64505;51.458;7.556;2023-08-20T04:19:50;20.27;;;11.27;;
75774;SDS011;64505;51.458;7.556;2023-08-20T04:21:51;20.92;;;12.40;;
75774;SDS011;64505;51.458;7.556;2023-08-20T04:23:53;19.92;;;12.13;;
75774;SDS011;64505;51.458;7.556;2023-08-20T04:25:54;19.35;;;11.88;;
75774;SDS011;64505;51.458;7.556;2023-08-20T04:27:56;17.90;;;11.13;;
75774;SDS011;64505;51.458;7.556;2023-08-20T04:29:57;17.42;;;11.10;;
75774;SDS011;64505;51.458;7.556;2023-08-20T04:31:59;19.15;;;11.32;;
75774;SDS011;64505;51.458;7.556;2023-08-20T04:34:00;18.73;;;10.35;;
75774;SDS011;64505;51.458;7.556;2023-08-20T04:36:02;18.13;;;11.65;;
75774;SDS011;64505;51.458;7.556;2023-08-20T04:38:03;20.17;;;11.48;;
75774;SDS011;64505;51.458;7.556;2023-08-20T04:40:05;17.75;;;10.38;;
75774;SDS011;64505;51.458;7.556;2023-08-20T04:42:09;16.02;;;9.73;;
75774;SDS011;64505;51.458;7.556;2023-08-20T04:44:10;17.38;;;10.07;;
75774;SDS011;64505;51.458;7.556;2023-08-20T04:46:12;17.42;;;11.13;;
75774;SDS011;64505;51.458;7.556;2023-08-20T04:48:13;19.92;;;10.38;;
75774;SDS011;64505;51.458;7.556;2023-08-20T04:50:15;15.68;;;10.18;;
75774;SDS011;64505;51.458;7.556;2023-08-20T04:52:19;15.20;;;9.75;;
75774;SDS011;64505;51.458;7.556;2023-08-20T04:54:21;15.63;;;10.23;;
75774;SDS011;64505;51.458;7.556;2023-08-20T04:56:23;15.35;;;9.80;;
75774;SDS011;64505;51.458;7.556;2023-08-20T04:58:24;13.57;;;8.98;;
75774;SDS011;64505;51.458;7.556;2023-08-20T05:00:26;13.18;;;8.57;;
75774;SDS011;64505;51.458;7.556;2023-08-20T05:02:28;14.20;;;8.90;;
75774;SDS011;64505;51.458;7.556;2023-08-20T05:04:31;14.93;;;8.98;;
75774;SDS011;64505;51.458;7.556;2023-08-20T05:06:33;14.75;;;9.00;;
75774;SDS011;64505;51.458;7.556;2023-08-20T05:08:37;16.08;;;9.63;;
75774;SDS011;64505;51.458;7.556;2023-08-20T05:10:38;14.27;;;8.73;;
75774;SDS011;64505;51.458;7.556;2023-08-20T05:12:41;19.88;;;8.98;;
75774;SDS011;64505;51.458;7.556;2023-08-20T05:14:42;14.40;;;8.95;;
75774;SDS011;64505;51.458;7.556;2023-08-20T05:16:44;14.88;;;9.27;;
75774;SDS011;64505;51.458;7.556;2023-08-20T05:18:45;13.13;;;9.18;;
75774;SDS011;64505;51.458;7.556;2023-08-20T05:20:47;15.93;;;8.60;;
75774;SDS011;64505;51.458;7.556;2023-08-20T05:22:48;15.88;;;8.20;;
75774;SDS011;64505;51.458;7.556;2023-08-20T05:24:50;17.83;;;9.60;;
75774;SDS011;64505;51.458;7.556;2023-08-20T05:27:04;13.63;;;9.05;;
75774;SDS011;64505;51.458;7.556;2023-08-20T05:29:09;16.95;;;9.65;;
75774;SDS011;64505;51.458;7.556;2023-08-20T05:31:10;16.33;;;10.35;;
75774;SDS011;64505;51.458;7.556;2023-08-20T05:33:12;16.15;;;9.30;;
75774;SDS011;64505;51.458;7.556;2023-08-20T05:35:13;15.52;;;9.02;;
75774;SDS011;64505;51.458;7.556;2023-08-20T05:37:15;15.45;;;9.10;;
75774;SDS011;64505;51.458;7.556;2023-08-20T05:39:17;16.25;;;9.50;;
75774;SDS011;64505;51.458;7.556;2023-08-20T05:41:18;14.38;;;9.60;;
75774;SDS011;64505;51.458;7.556;2023-08-20T05:43:20;13.32;;;9.40;;
75774;SDS011;64505;51.458;7.556;2023-08-20T05:45:21;17.15;;;10.15;;
75774;SDS011;64505;51.458;7.556;2023-08-20T05:47:23;16.63;;;9.25;;
75774;SDS011;64505;51.458;7.556;2023-08-20T05:49:24;14.77;;;9.23;;
75774;SDS011;64505;51.458;7.556;2023-08-20T05:51:26;14.10;;;8.93;;
75774;SDS011;64505;51.458;7.556;2023-08-20T05:53:27;12.90;;;9.40;;
75774;SDS011;64505;51.458;7.556;2023-08-20T05:55:29;15.18;;;9.07;;
75774;SDS011;64505;51.458;7.556;2023-08-20T05:57:30;17.42;;;9.85;;
75774;SDS011;64505;51.458;7.556;2023-08-20T05:59:32;15.52;;;9.05;;
75774;SDS011;64505;51.458;7.556;2023-08-20T06:01:33;16.02;;;9.55;;
75774;SDS011;64505;51.458;7.556;2023-08-20T06:03:35;17.38;;;10.95;;
75774;SDS011;64505;51.458;7.556;2023-08-20T06:05:36;18.73;;;10.98;;
75774;SDS011;64505;51.458;7.556;2023-08-20T06:07:38;19.38;;;11.57;;
75774;SDS011;64505;51.458;7.556;2023-08-20T06:09:40;22.27;;;10.98;;
75774;SDS011;64505;51.458;7.556;2023-08-20T06:11:41;26.33;;;12.45;;
75774;SDS011;64505;51.458;7.556;2023-08-20T06:13:43;24.92;;;13.52;;
75774;SDS011;64505;51.458;7.556;2023-08-20T06:15:44;25.30;;;13.65;;
75774;SDS011;64505;51.458;7.556;2023-08-20T06:17:46;29.13;;;15.05;;
75774;SDS011;64505;51.458;7.556;2023-08-20T06:19:47;25.88;;;14.77;;
75774;SDS011;64505;51.458;7.556;2023-08-20T06:21:48;31.35;;;15.57;;
75774;SDS011;64505;51.458;7.556;2023-08-20T06:23:50;28.95;;;15.05;;
75774;SDS011;64505;51.458;7.556;2023-08-20T06:25:52;30.98;;;16.23;;
75774;SDS011;64505;51.458;7.556;2023-08-20T06:27:53;32.15;;;15.55;;
75774;SDS011;64505;51.458;7.556;2023-08-20T06:29:55;37.67;;;17.67;;
75774;SDS011;64505;51.458;7.556;2023-08-20T06:31:56;39.78;;;18.35;;
75774;SDS011;64505;51.458;7.556;2023-08-20T06:33:58;35.35;;;17.67;;
75774;SDS011;64505;51.458;7.556;2023-08-20T06:36:00;38.47;;;17.33;;
75774;SDS011;64505;51.458;7.556;2023-08-20T06:38:01;34.92;;;16.50;;
75774;SDS011;64505;51.458;7.556;2023-08-20T06:40:03;37.08;;;16.70;;
75774;SDS011;64505;51.458;7.556;2023-08-20T06:42:05;34.75;;;17.35;;
75774;SDS011;64505;51.458;7.556;2023-08-20T06:44:07;32.50;;;18.02;;
75774;SDS011;64505;51.458;7.556;2023-08-20T06:46:08;35.53;;;17.05;;
75774;SDS011;64505;51.458;7.556;2023-08-20T06:48:10;31.83;;;15.85;;
75774;SDS011;64505;51.458;7.556;2023-08-20T06:50:15;37.13;;;18.40;;
75774;SDS011;64505;51.458;7.556;2023-08-20T06:52:16;38.13;;;19.00;;
75774;SDS011;64505;51.458;7.556;2023-08-20T06:54:18;39.53;;;19.23;;
75774;SDS011;64505;51.458;7.556;2023-08-20T06:56:20;40.75;;;20.95;;
75774;SDS011;64505;51.458;7.556;2023-08-20T06:58:22;40.38;;;18.38;;
75774;SDS011;64505;51.458;7.556;2023-08-20T07:00:23;37.92;;;19.45;;
75774;SDS011;64505;51.458;7.556;2023-08-20T07:02:25;39.28;;;19.30;;
75774;SDS011;64505;51.458;7.556;2023-08-20T07:04:26;38.33;;;19.20;;
75774;SDS011;64505;51.458;7.556;2023-08-20T07:06:27;36.47;;;18.20;;
75774;SDS011;64505;51.458;7.556;2023-08-20T07:08:29;34.33;;;18.45;;
75774;SDS011;64505;51.458;7.556;2023-08-20T07:10:31;40.85;;;18.35;;
75774;SDS011;64505;51.458;7.556;2023-08-20T07:12:32;40.50;;;18.83;;
75774;SDS011;64505;51.458;7.556;2023-08-20T07:14:34;32.40;;;16.52;;
75774;SDS011;64505;51.458;7.556;2023-08-20T07:16:35;34.45;;;15.93;;
75774;SDS011;64505;51.458;7.556;2023-08-20T07:18:37;34.53;;;16.85;;
75774;SDS011;64505;51.458;7.556;2023-08-20T07:20:38;31.35;;;15.82;;
75774;SDS011;64505;51.458;7.556;2023-08-20T07:22:40;33.13;;;18.08;;
75774;SDS011;64505;51.458;7.556;2023-08-20T07:24:43;32.95;;;16.55;;
75774;SDS011;64505;51.458;7.556;2023-08-20T07:26:44;33.15;;;16.23;;
75774;SDS011;64505;51.458;7.556;2023-08-20T07:28:46;33.17;;;15.82;;
75774;SDS011;64505;51.458;7.556;2023-08-20T07:31:00;33.95;;;16.38;;
75774;SDS011;64505;51.458;7.556;2023-08-20T07:33:06;33.58;;;17.38;;
75774;SDS011;64505;51.458;7.556;2023-08-20T07:35:08;31.98;;;17.63;;
75774;SDS011;64505;51.458;7.556;2023-08-20T07:37:12;30.17;;;16.05;;
75774;SDS011;64505;51.458;7.556;2023-08-20T07:39:13;33.30;;;17.30;;
75774;SDS011;64505;51.458;7.556;2023-08-20T07:41:19;34.45;;;18.02;;
75774;SDS011;64505;51.458;7.556;2023-08-20T07:43:21;30.77;;;16.55;;
75774;SDS011;64505;51.458;7.556;2023-08-20T07:45:24;37.30;;;18.60;;
75774;SDS011;64505;51.458;7.556;2023-08-20T07:47:26;37.35;;;19.38;;
75774;SDS011;64505;51.458;7.556;2023-08-20T07:49:30;34.75;;;17.20;;
75774;SDS011;64505;51.458;7.556;2023-08-20T07:51:31;35.72;;;17.38;;
75774;SDS011;64505;51.458;7.556;2023-08-20T07:53:33;32.13;;;15.95;;
75774;SDS011;64505;51.458;7.556;2023-08-20T07:55:34;35.08;;;18.20;;
75774;SDS011;64505;51.458;7.556;2023-08-20T07:57:36;32.17;;;16.98;;
75774;SDS011;64505;51.458;7.556;2023-08-20T07:59:38;61.28;;;31.50;;
75774;SDS011;64505;51.458;7.556;2023-08-20T08:01:39;43.42;;;23.85;;
75774;SDS011;64505;51.458;7.556;2023-08-20T08:03:41;32.60;;;18.00;;
75774;SDS011;64505;51.458;7.556;2023-08-20T08:05:49;34.58;;;18.10;;
75774;SDS011;64505;51.458;7.556;2023-08-20T08:07:51;35.85;;;19.27;;
75774;SDS011;64505;51.458;7.556;2023-08-20T08:09:53;30.15;;;17.40;;
75774;SDS011;64505;51.458;7.556;2023-08-20T08:11:54;35.80;;;19.60;;
75774;SDS011;64505;51.458;7.556;2023-08-20T08:13:55;31.83;;;17.55;;
75774;SDS011;64505;51.458;7.556;2023-08-20T08:15:57;30.08;;;16.90;;
75774;SDS011;64505;51.458;7.556;2023-08-20T08:17:58;29.40;;;17.85;;
75774;SDS011;64505;51.458;7.556;2023-08-20T08:20:00;32.85;;;17.58;;
75774;SDS011;64505;51.458;7.556;2023-08-20T08:22:02;26.70;;;15.80;;
75774;SDS011;64505;51.458;7.556;2023-08-20T08:24:04;25.70;;;15.57;;
75774;SDS011;64505;51.458;7.556;2023-08-20T08:26:06;27.20;;;14.77;;
75774;SDS011;64505;51.458;7.556;2023-08-20T08:28:07;25.13;;;14.23;;
75774;SDS011;64505;51.458;7.556;2023-08-20T08:30:09;25.15;;;15.52;;
75774;SDS011;64505;51.458;7.556;2023-08-20T08:32:11;25.88;;;15.25;;
75774;SDS011;64505;51.458;7.556;2023-08-20T08:34:12;21.02;;;12.70;;
75774;SDS011;64505;51.458;7.556;2023-08-20T08:36:15;22.00;;;12.55;;
75774;SDS011;64505;51.458;7.556;2023-08-20T08:38:17;21.20;;;12.70;;
75774;SDS011;64505;51.458;7.556;2023-08-20T08:40:19;20.13;;;11.25;;
75774;SDS011;64505;51.458;7.556;2023-08-20T08:42:21;17.65;;;9.70;;
75774;SDS011;64505;51.458;7.556;2023-08-20T08:44:23;15.63;;;9.00;;
75774;SDS011;64505;51.458;7.556;2023-08-20T08:46:25;17.67;;;9.07;;
75774;SDS011;64505;51.458;7.556;2023-08-20T08:48:27;18.23;;;10.43;;
75774;SDS011;64505;51.458;7.556;2023-08-20T08:50:28;15.30;;;10.27;;
75774;SDS011;64505;51.458;7.556;2023-08-20T08:52:31;21.33;;;11.50;;
75774;SDS011;64505;51.458;7.556;2023-08-20T08:54:33;17.73;;;10.20;;
75774;SDS011;64505;51.458;7.556;2023-08-20T08:56:35;15.85;;;10.32;;
75774;SDS011;64505;51.458;7.556;2023-08-20T08:58:36;15.90;;;10.27;;
75774;SDS011;64505;51.458;7.556;2023-08-20T09:00:38;15.00;;;9.60;;
75774;SDS011;64505;51.458;7.556;2023-08-20T09:02:39;13.10;;;8.00;;
75774;SDS011;64505;51.458;7.556;2023-08-20T09:04:42;11.98;;;8.93;;
75774;SDS011;64505;51.458;7.556;2023-08-20T09:06:44;13.73;;;7.90;;
75774;SDS011;64505;51.458;7.556;2023-08-20T09:08:47;15.30;;;7.15;;
75774;SDS011;64505;51.458;7.556;2023-08-20T09:10:52;11.02;;;7.22;;
75774;SDS011;64505;51.458;7.556;2023-08-20T09:12:56;13.07;;;7.13;;
75774;SDS011;64505;51.458;7.556;2023-08-20T09:14:58;11.05;;;6.07;;
75774;SDS011;64505;51.458;7.556;2023-08-20T09:17:01;10.63;;;6.78;;
75774;SDS011;64505;51.458;7.556;2023-08-20T09:19:03;8.20;;;5.55;;
75774;SDS011;64505;51.458;7.556;2023-08-20T09:21:07;9.02;;;5.10;;
75774;SDS011;64505;51.458;7.556;2023-08-20T09:23:13;10.35;;;6.60;;
75774;SDS011;64505;51.458;7.556;2023-08-20T09:25:15;10.60;;;5.88;;
75774;SDS011;64505;51.458;7.556;2023-08-20T09:27:18;8.10;;;4.50;;
75774;SDS011;64505;51.458;7.556;2023-08-20T09:29:19;9.27;;;6.57;;
75774;SDS011;64505;51.458;7.556;2023-08-20T09:31:22;10.32;;;5.20;;
75774;SDS011;64505;51.458;7.556;2023-08-20T09:33:50;10.10;;;5.32;;
75774;SDS011;64505;51.458;7.556;2023-08-20T09:35:52;9.95;;;5.30;;
75774;SDS011;64505;51.458;7.556;2023-08-20T09:38:01;9.38;;;5.07;;
75774;SDS011;64505;51.458;7.556;2023-08-20T09:40:04;8.73;;;5.22;;
75774;SDS011;64505;51.458;7.556;2023-08-20T09:42:07;8.70;;;5.15;;
75774;SDS011;64505;51.458;7.556;2023-08-20T09:44:10;8.30;;;5.30;;
75774;SDS011;64505;51.458;7.556;2023-08-20T09:46:14;8.98;;;4.80;;
75774;SDS011;64505;51.458;7.556;2023-08-20T09:48:18;8.82;;;5.10;;
75774;SDS011;64505;51.458;7.556;2023-08-20T09:50:21;9.90;;;5.43;;
75774;SDS011;64505;51.458;7.556;2023-08-20T09:52:25;9.25;;;5.32;;
75774;SDS011;64505;51.458;7.556;2023-08-20T09:56:52;7.25;;;4.75;;
75774;SDS011;64505;51.458;7.556;2023-08-20T09:59:00;7.32;;;4.60;;
75774;SDS011;64505;51.458;7.556;2023-08-20T10:01:02;7.10;;;4.50;;
75774;SDS011;64505;51.458;7.556;2023-08-20T10:03:03;10.38;;;4.90;;
75774;SDS011;64505;51.458;7.556;2023-08-20T10:05:06;8.35;;;4.75;;
75774;SDS011;64505;51.458;7.556;2023-08-20T10:07:09;11.05;;;5.00;;
75774;SDS011;64505;51.458;7.556;2023-08-20T10:09:11;7.65;;;4.57;;
75774;SDS011;64505;51.458;7.556;2023-08-20T10:11:14;7.85;;;5.18;;
75774;SDS011;64505;51.458;7.556;2023-08-20T10:13:16;8.90;;;4.95;;
75774;SDS011;64505;51.458;7.556;2023-08-20T10:15:18;8.02;;;5.18;;
75774;SDS011;64505;51.458;7.556;2023-08-20T10:17:21;8.18;;;5.05;;
75774;SDS011;64505;51.458;7.556;2023-08-20T10:19:24;8.25;;;4.95;;
75774;SDS011;64505;51.458;7.556;2023-08-20T10:21:26;8.48;;;4.57;;
75774;SDS011;64505;51.458;7.556;2023-08-20T10:23:28;7.50;;;4.82;;
75774;SDS011;64505;51.458;7.556;2023-08-20T10:25:30;8.13;;;4.82;;
75774;SDS011;64505;51.458;7.556;2023-08-20T10:27:32;7.82;;;4.55;;
75774;SDS011;64505;51.458;7.556;2023-08-20T10:29:36;8.82;;;5.05;;
75774;SDS011;64505;51.458;7.556;2023-08-20T10:31:45;8.20;;;5.45;;
75774;SDS011;64505;51.458;7.556;2023-08-20T10:33:55;7.00;;;4.55;;
75774;SDS011;64505;51.458;7.556;2023-08-20T10:35:58;8.48;;;4.72;;
75774;SDS011;64505;51.458;7.556;2023-08-20T10:38:15;7.55;;;4.85;;
75774;SDS011;64505;51.458;7.556;2023-08-20T10:40:46;8.63;;;5.68;;
75774;SDS011;64505;51.458;7.556;2023-08-20T10:42:53;7.93;;;5.50;;
75774;SDS011;64505;51.458;7.556;2023-08-20T10:45:06;9.05;;;5.38;;
75774;SDS011;64505;51.458;7.556;2023-08-20T10:47:11;8.68;;;5.72;;
75774;SDS011;64505;51.458;7.556;2023-08-20T10:49:19;10.35;;;5.28;;
75774;SDS011;64505;51.458;7.556;2023-08-20T10:53:26;10.38;;;5.82;;
75774;SDS011;64505;51.458;7.556;2023-08-20T10:55:28;9.40;;;5.15;;
75774;SDS011;64505;51.458;7.556;2023-08-20T10:57:33;10.25;;;5.45;;
75774;SDS011;64505;51.458;7.556;2023-08-20T10:59:38;11.13;;;5.75;;
75774;SDS011;64505;51.458;7.556;2023-08-20T11:01:43;7.53;;;4.65;;
75774;SDS011;64505;51.458;7.556;2023-08-20T11:03:47;9.48;;;5.00;;
75774;SDS011;64505;51.458;7.556;2023-08-20T11:05:51;7.43;;;4.22;;
75774;SDS011;64505;51.458;7.556;2023-08-20T11:07:53;7.53;;;4.32;;
75774;SDS011;64505;51.458;7.556;2023-08-20T11:09:55;9.55;;;5.82;;
75774;SDS011;64505;51.458;7.556;2023-08-20T11:11:57;12.07;;;7.32;;
75774;SDS011;64505;51.458;7.556;2023-08-20T11:14:11;8.77;;;6.13;;
75774;SDS011;64505;51.458;7.556;2023-08-20T11:16:17;10.25;;;5.72;;
75774;SDS011;64505;51.458;7.556;2023-08-20T11:18:20;8.77;;;5.70;;
75774;SDS011;64505;51.458;7.556;2023-08-20T11:20:22;7.88;;;5.47;;
75774;SDS011;64505;51.458;7.556;2023-08-20T11:22:23;10.27;;;6.13;;
75774;SDS011;64505;51.458;7.556;2023-08-20T11:24:28;9.07;;;5.50;;
75774;SDS011;64505;51.458;7.556;2023-08-20T11:26:30;9.60;;;5.05;;
75774;SDS011;64505;51.458;7.556;2023-08-20T11:28:32;7.43;;;5.13;;
75774;SDS011;64505;51.458;7.556;2023-08-20T11:30:33;6.90;;;3.63;;
75774;SDS011;64505;51.458;7.556;2023-08-20T11:32:35;7.43;;;3.80;;
75774;SDS011;64505;51.458;7.556;2023-08-20T11:34:36;5.65;;;3.90;;
75774;SDS011;64505;51.458;7.556;2023-08-20T11:36:40;7.00;;;4.05;;
75774;SDS011;64505;51.458;7.556;2023-08-20T11:38:41;5.97;;;4.22;;
75774;SDS011;64505;51.458;7.556;2023-08-20T11:40:43;5.95;;;3.47;;
75774;SDS011;64505;51.458;7.556;2023-08-20T11:42:44;6.78;;;3.78;;
75774;SDS011;64505;51.458;7.556;2023-08-20T11:44:46;6.85;;;3.70;;
75774;SDS011;64505;51.458;7.556;2023-08-20T11:46:48;8.43;;;5.03;;
75774;SDS011;64505;51.458;7.556;2023-08-20T11:51:04;9.88;;;5.75;;
75774;SDS011;64505;51.458;7.556;2023-08-20T11:53:06;8.68;;;5.95;;
75774;SDS011;64505;51.458;7.556;2023-08-20T11:55:09;10.82;;;6.40;;
75774;SDS011;64505;51.458;7.556;2023-08-20T11:57:10;11.13;;;6.40;;
75774;SDS011;64505;51.458;7.556;2023-08-20T11:59:12;9.52;;;6.53;;
75774;SDS011;64505;51.458;7.556;2023-08-20T12:01:14;9.82;;;6.07;;
75774;SDS011;64505;51.458;7.556;2023-08-20T12:03:17;9.73;;;6.05;;
75774;SDS011;64505;51.458;7.556;2023-08-20T12:05:19;9.77;;;5.45;;
75774;SDS011;64505;51.458;7.556;2023-08-20T12:07:24;9.52;;;5.82;;
75774;SDS011;64505;51.458;7.556;2023-08-20T12:09:28;10.63;;;5.82;;
75774;SDS011;64505;51.458;7.556;2023-08-20T12:11:29;10.13;;;5.65;;
75774;SDS011;64505;51.458;7.556;2023-08-20T12:13:32;8.65;;;5.60;;
75774;SDS011;64505;51.458;7.556;2023-08-20T12:15:33;7.95;;;5.25;;
75774;SDS011;64505;51.458;7.556;2023-08-20T12:17:34;10.18;;;5.68;;